Latest Weather Observations for Bickley

IDW60801

Issued at 9:34 pm WST Saturday 3 December 2016 (issued every 30 minutes, with the page automatically refreshed every 10 minutes)

About weather observations | Map of weather stations | Latest weather observations for WA | Other Formats
Station Details ID: 009240 Name: BICKLEY Lat: -32.01 Lon: 116.14 Height: 384.0 m
Data from the previous 72 hours. | See also: Recent months at Bickley
Date/Time
WST
Temp
°C
App
Temp
°C
Dew
Point
°C
Rel
Hum
%
Delta-T
°C
Wind Press
QNH
hPa
Press
MSL
hPa
Rain since
9am
mm
Dir  Spd
km/h
Gust
km/h
Spd
kts
Gust
kts
03/09:30pm 15.3 13.7 14.0 92 0.7 WSW 15 28 8 15 - - 0.2
03/09:00pm 15.6 14.2 14.5 93 0.6 WSW 15 32 8 17 - - 0.2
03/08:30pm 15.6 13.8 14.5 93 0.6 W 17 32 9 17 - - 0.2
03/08:00pm 15.3 14.1 14.0 92 0.7 WSW 13 24 7 13 - - 0.2
03/07:30pm 15.3 13.3 13.8 91 0.9 WSW 17 28 9 15 - - 0.2
03/07:00pm 16.0 12.8 14.2 89 1.0 W 24 39 13 21 - - 0.2
03/06:30pm 16.7 13.8 13.0 79 2.1 WSW 20 33 11 18 - - 0.0
03/06:00pm 17.6 13.9 12.7 73 2.8 W 24 33 13 18 - - 0.0
03/05:30pm 17.8 13.7 12.7 72 2.9 W 26 43 14 23 - - 0.0
03/05:00pm 19.0 16.7 13.0 68 3.4 W 17 35 9 19 - - 0.0
03/04:30pm 18.2 15.2 13.7 75 2.6 W 22 41 12 22 - - 0.0
03/04:00pm 16.8 14.3 14.1 84 1.6 W 20 32 11 17 - - 0.0
03/03:30pm 17.8 14.9 12.3 70 3.1 WSW 19 30 10 16 - - 0.0
03/03:00pm 18.7 14.8 12.2 66 3.7 WSW 24 35 13 19 - - 0.0
03/02:30pm 20.0 16.0 11.8 59 4.6 W 24 43 13 23 - - 0.0
03/02:00pm 19.9 16.6 11.7 59 4.6 W 20 39 11 21 - - 0.0
03/01:30pm 20.5 16.3 11.2 55 5.2 W 24 41 13 22 - - 0.0
03/01:00pm 19.8 16.0 11.0 57 4.9 WSW 22 35 12 19 - - 0.0
03/12:30pm 20.1 15.0 10.5 54 5.3 WSW 28 48 15 26 - - 0.0
03/12:29pm 20.2 15.0 10.3 53 5.4 WSW 28 48 15 26 - - 0.0
03/12:00pm 20.0 15.1 10.1 53 5.4 WSW 26 43 14 23 - - 0.0
03/11:30am 19.6 15.8 9.8 53 5.3 WSW 20 41 11 22 - - 0.0
03/11:00am 19.6 15.9 9.5 52 5.5 WSW 19 30 10 16 - - 0.0
03/10:30am 19.0 15.2 9.8 55 5.0 WSW 20 32 11 17 - - 0.0
03/10:00am 18.1 14.7 9.2 56 4.7 WSW 17 35 9 19 - - 0.0
03/09:30am 17.4 13.9 10.1 62 3.9 WSW 19 32 10 17 - - 0.0
03/09:00am 16.7 13.5 9.9 64 3.6 WSW 17 30 9 16 - - 0.0
03/08:30am 16.3 13.1 9.9 66 3.4 WSW 17 30 9 16 - - 0.0
03/08:00am 15.0 12.3 10.2 73 2.6 SW 15 26 8 14 - - 0.0
03/07:30am 14.7 12.5 10.7 77 2.2 WSW 13 26 7 14 - - 0.0
03/07:00am 14.3 12.3 11.6 84 1.5 WSW 13 28 7 15 - - 0.0
03/06:30am 13.6 12.1 11.8 89 1.0 WSW 11 22 6 12 - - 0.0
03/06:00am 12.6 9.7 11.0 90 0.9 SW 17 24 9 13 - - 0.0
03/05:30am 12.0 8.9 10.4 90 0.8 WSW 17 24 9 13 - - 0.0
03/05:00am 11.9 9.1 10.1 89 0.9 WSW 15 22 8 12 - - 0.0
03/04:30am 12.0 9.6 10.1 88 1.0 WSW 13 17 7 9 - - 0.0
03/04:00am 12.1 10.1 10.0 87 1.1 SW 11 17 6 9 - - 0.0
03/03:30am 12.5 9.4 10.2 86 1.2 WSW 17 28 9 15 - - 0.0
03/03:00am 12.4 8.9 10.3 87 1.1 WSW 19 26 10 14 - - 0.0
03/02:30am 12.6 9.2 10.7 88 1.0 WSW 19 24 10 13 - - 0.0
03/02:00am 12.9 10.0 11.1 89 1.0 WSW 17 24 9 13 - - 0.0
03/01:30am 13.0 10.9 11.2 89 1.0 WSW 13 17 7 9 - - 0.0
03/01:00am 13.4 11.4 11.5 88 1.0 WSW 13 17 7 9 - - 0.0
03/12:30am 13.6 11.5 11.3 86 1.2 WSW 13 22 7 12 - - 0.0
03/12:00am 13.8 11.4 11.5 86 1.3 SW 15 22 8 12 - - 0.0
 
Date/Time
WST
Temp
°C
App
Temp
°C
Dew
Point
°C
Rel
Hum
%
Delta-T
°C
Wind Press
QNH
hPa
Press
MSL
hPa
Rain since
9am
mm
Dir  Spd
km/h
Gust
km/h
Spd
kts
Gust
kts
02/11:30pm 13.8 10.9 11.1 84 1.5 WSW 17 24 9 13 - - 0.0
02/11:00pm 14.0 11.0 10.8 81 1.7 WSW 17 24 9 13 - - 0.0
02/10:30pm 14.4 11.4 10.6 78 2.0 WSW 17 24 9 13 - - 0.0
02/10:00pm 14.6 12.3 10.6 77 2.1 SW 13 20 7 11 - - 0.0
02/09:30pm 14.8 12.2 10.6 76 2.3 SW 15 20 8 11 - - 0.0
02/09:00pm 15.0 11.9 10.4 74 2.5 SSW 17 22 9 12 - - 0.0
02/08:30pm 15.3 12.6 10.3 72 2.7 SW 15 20 8 11 - - 0.0
02/08:00pm 16.0 13.3 10.3 69 3.1 SW 15 22 8 12 - - 0.0
02/07:30pm 17.0 13.5 10.1 64 3.7 SW 19 28 10 15 - - 0.0
02/07:00pm 18.3 15.2 10.4 60 4.3 SW 17 26 9 14 - - 0.0
02/06:30pm 19.4 16.4 10.7 57 4.8 WSW 17 28 9 15 - - 0.0
02/06:00pm 21.2 18.1 10.4 50 6.0 WSW 17 26 9 14 - - 0.0
02/05:30pm 22.1 19.0 10.3 47 6.6 WSW 17 28 9 15 - - 0.0
02/05:00pm 23.2 20.3 9.6 42 7.5 WSW 15 26 8 14 - - 0.0
02/04:30pm 23.8 20.6 8.6 38 8.3 W 15 28 8 15 - - 0.0
02/04:00pm 24.5 21.1 7.6 34 9.1 WSW 15 26 8 14 - - 0.0
02/03:30pm 25.2 21.9 8.2 34 9.3 WSW 15 30 8 16 - - 0.0
02/03:00pm 26.0 23.2 8.5 33 9.6 WSW 13 24 7 13 - - 0.0
02/02:30pm 25.7 22.1 8.2 33 9.6 WSW 17 28 9 15 - - 0.0
02/02:00pm 25.7 21.7 8.2 33 9.6 WSW 19 30 10 16 - - 0.0
02/01:30pm 26.6 23.8 7.1 29 10.5 W 11 22 6 12 - - 0.0
02/01:00pm 25.8 23.0 6.9 30 10.1 WNW 11 28 6 15 - - 0.0
02/12:30pm 24.7 22.2 6.4 31 9.6 NE 9 22 5 12 - - 0.0
02/12:00pm 24.3 22.5 7.0 33 9.2 WNW 6 11 3 6 - - 0.0
02/11:30am 23.1 20.7 6.8 35 8.6 ENE 9 17 5 9 - - 0.0
02/11:00am 22.5 20.3 7.9 39 7.8 ENE 9 22 5 12 - - 0.0
02/10:30am 21.9 19.7 7.7 40 7.5 ESE 9 20 5 11 - - 0.0
02/10:00am 21.3 18.9 8.6 44 6.8 ESE 11 22 6 12 - - 0.0
02/09:30am 19.5 16.6 8.2 48 6.0 E 13 26 7 14 - - 0.0
02/09:00am 19.3 15.1 8.3 49 5.8 ENE 20 32 11 17 - - 0.0
02/08:30am 17.8 13.6 8.4 54 4.9 E 20 39 11 21 - - 0.0
02/08:00am 16.1 11.0 7.8 58 4.3 E 24 43 13 23 - - 0.0
02/07:30am 14.8 9.4 7.8 63 3.6 E 26 39 14 21 - - 0.0
02/07:00am 13.6 8.4 7.4 66 3.1 E 24 39 13 21 - - 0.0
02/06:30am 12.3 6.3 7.0 70 2.6 E 28 43 15 23 - - 0.0
02/06:00am 11.1 4.7 6.8 75 2.1 E 30 43 16 23 - - 0.0
02/05:32am 10.4 4.3 6.4 76 1.9 E 28 46 15 25 - - 0.0
02/05:30am 10.4 4.3 6.4 76 1.9 E 28 44 15 24 - - 0.0
02/05:00am 10.5 4.3 6.3 75 2.0 E 28 44 15 24 - - 0.0
02/04:41am 10.6 4.4 6.2 74 2.1 E 28 46 15 25 - - 0.0
02/04:30am 10.7 4.9 6.1 73 2.2 E 26 43 14 23 - - 0.0
02/04:00am 11.1 4.9 6.3 72 2.3 E 28 48 15 26 - - 0.0
02/03:56am 11.2 4.7 6.3 72 2.3 E 30 48 16 26 - - 0.0
02/03:30am 11.4 5.6 6.3 71 2.4 E 26 44 14 24 - - 0.0
02/03:00am 11.7 5.5 6.2 69 2.6 E 28 46 15 25 - - 0.0
02/02:32am 12.0 5.8 6.3 68 2.7 E 28 48 15 26 - - 0.0
02/02:30am 12.2 6.5 6.5 68 2.8 E 26 43 14 23 - - 0.0
02/02:00am 12.6 6.5 6.4 66 3.0 E 28 44 15 24 - - 0.0
02/01:30am 12.8 7.0 6.4 65 3.1 ESE 26 46 14 25 - - 0.0
02/01:00am 13.6 8.7 6.7 63 3.4 ESE 22 39 12 21 - - 0.0
02/12:30am 13.8 9.0 7.3 65 3.2 ESE 22 39 12 21 - - 0.0
02/12:00am 13.7 9.8 8.7 72 2.6 SE 19 28 10 15 - - 0.0
 
Date/Time
WST
Temp
°C
App
Temp
°C
Dew
Point
°C
Rel
Hum
%
Delta-T
°C
Wind Press
QNH
hPa
Press
MSL
hPa
Rain since
9am
mm
Dir  Spd
km/h
Gust
km/h
Spd
kts
Gust
kts
01/11:30pm 13.5 10.4 9.0 74 2.3 S 15 20 8 11 - - 0.0
01/11:00pm 13.8 10.8 9.3 74 2.3 SSW 15 20 8 11 - - 0.0
01/10:30pm 14.2 11.2 9.4 73 2.5 SW 15 22 8 12 - - 0.0
01/10:00pm 14.4 11.5 9.6 73 2.5 SW 15 22 8 12 - - 0.0
01/09:30pm 14.6 11.7 9.6 72 2.6 SW 15 22 8 12 - - 0.0
01/09:00pm 14.9 11.3 9.7 71 2.7 SW 19 26 10 14 - - 0.0
01/08:30pm 15.2 11.5 9.6 69 3.0 SW 19 26 10 14 - - 0.0
01/08:00pm 15.6 11.9 9.5 67 3.2 WSW 19 26 10 14 - - 0.0
01/07:30pm 16.3 13.0 9.5 64 3.6 WSW 17 24 9 13 - - 0.0
01/07:00pm 17.1 13.8 9.5 61 4.0 SW 17 24 9 13 - - 0.0
01/06:30pm 17.9 14.2 9.5 58 4.5 SW 19 30 10 16 - - 0.0
01/06:00pm 18.9 15.6 9.4 54 5.1 WSW 17 28 9 15 - - 0.0
01/05:30pm 19.9 16.1 9.2 50 5.8 WSW 19 28 10 15 - - 0.0
01/05:00pm 20.5 16.4 8.5 46 6.4 SW 20 35 11 19 - - 0.0
01/04:30pm 21.0 16.8 8.3 44 6.8 WSW 20 32 11 17 - - 0.0
01/04:00pm 21.9 18.0 8.8 43 7.1 SW 19 30 10 16 - - 0.0
01/03:30pm 21.8 17.7 8.7 43 7.1 SW 20 28 11 15 - - 0.0
01/03:00pm 22.1 18.3 8.9 43 7.2 SW 19 28 10 15 - - 0.0
01/02:30pm 22.2 19.1 9.0 43 7.2 W 15 26 8 14 - - 0.0
01/02:00pm 22.4 19.8 7.8 39 7.8 S 11 20 6 11 - - 0.0
01/01:30pm 21.9 19.7 7.7 40 7.5 SW 9 20 5 11 - - 0.0
01/01:00pm 21.9 19.4 8.4 42 7.2 SW 11 22 6 12 - - 0.0
01/12:30pm 20.6 17.6 7.9 44 6.7 SSW 13 24 7 13 - - 0.0
01/12:00pm 20.0 17.8 9.3 50 5.8 WSW 11 20 6 11 - - 0.0
01/11:30am 18.9 17.5 8.8 52 5.4 W 6 13 3 7 - - 0.0
01/11:00am 18.3 17.0 9.9 58 4.5 SSE 7 17 4 9 - - 0.0
01/10:30am 17.4 16.2 10.3 63 3.8 S 7 13 4 7 - - 0.0
01/10:00am 17.8 15.6 10.7 63 3.9 E 13 17 7 9 - - 0.0
01/09:30am 17.2 15.7 10.6 65 3.6 ENE 9 15 5 8 - - 0.0
01/09:00am 16.4 14.6 9.6 64 3.6 SSE 9 15 5 8 - - 0.0
01/08:30am 17.0 13.8 10.1 64 3.7 SE 17 30 9 16 - - 0.0
01/08:00am 15.5 14.0 10.5 72 2.7 SSE 9 15 5 8 - - 0.0
01/07:30am 14.8 12.9 10.4 75 2.4 SE 11 20 6 11 - - 0.0
01/07:00am 14.1 12.1 10.3 78 2.0 SE 11 17 6 9 - - 0.0
01/06:30am 14.0 12.5 10.4 79 1.9 SE 9 17 5 9 - - 0.0
01/06:00am 12.9 10.8 9.9 82 1.6 SSE 11 17 6 9 - - 0.0
01/05:30am 11.7 9.8 9.1 84 1.3 SSE 9 15 5 8 - - 0.0
01/05:00am 11.5 9.1 8.7 83 1.4 SE 11 15 6 8 - - 0.0
01/04:30am 12.0 9.3 9.0 82 1.5 SSE 13 20 7 11 - - 0.0
01/04:00am 12.1 9.4 9.1 82 1.5 SSE 13 22 7 12 - - 0.0
01/03:30am 12.2 9.6 9.2 82 1.5 SSE 13 22 7 12 - - 0.0
01/03:00am 12.1 9.4 8.9 81 1.6 SSE 13 20 7 11 - - 0.0
01/02:30am 12.3 9.6 9.1 81 1.6 SSE 13 20 7 11 - - 0.0
01/02:00am 12.7 9.7 9.3 80 1.8 SSE 15 24 8 13 - - 0.0
01/01:30am 12.8 9.8 9.4 80 1.8 SSE 15 24 8 13 - - 0.0
01/01:00am 12.9 10.0 9.7 81 1.7 S 15 26 8 14 - - 0.0
01/12:30am 13.2 10.3 9.8 80 1.8 S 15 22 8 12 - - 0.0
01/12:00am 13.6 10.9 10.2 80 1.8 SSW 15 24 8 13 - - 0.0
 
Date/Time
WST
Temp
°C
App
Temp
°C
Dew
Point
°C
Rel
Hum
%
Delta-T
°C
Wind Press
QNH
hPa
Press
MSL
hPa
Rain since
9am
mm
Dir  Spd
km/h
Gust
km/h
Spd
kts
Gust
kts
30/11:30pm 13.8 11.5 10.6 81 1.7 SSW 13 20 7 11 - - 0.0
30/11:00pm 14.0 11.4 10.6 80 1.8 SSW 15 22 8 12 - - 0.0
30/10:30pm 14.2 11.2 10.8 80 1.8 SSW 17 28 9 15 - - 0.0
30/10:00pm 14.2 11.2 10.8 80 1.8 SSW 17 26 9 14 - - 0.0

Other Formats:

Comma delimited format used in spreadsheet applications
http://www.bom.gov.au/fwo/IDW60801/IDW60801.95610.axf

JavaScript Object Notation format (JSON) in row-major order
http://www.bom.gov.au/fwo/IDW60801/IDW60801.95610.json